sensor_id;sensor_type;location;lat;lon;timestamp;P1;durP1;ratioP1;P2;durP2;ratioP2
44228;SDS011;29904;51.058;5.378;2022-07-19T00:02:03;3.37;;;1.60;;
44228;SDS011;29904;51.058;5.378;2022-07-19T00:04:31;3.10;;;1.60;;
44228;SDS011;29904;51.058;5.378;2022-07-19T00:06:58;3.93;;;2.00;;
44228;SDS011;29904;51.058;5.378;2022-07-19T00:09:23;1.98;;;1.40;;
44228;SDS011;29904;51.058;5.378;2022-07-19T00:11:52;3.03;;;1.70;;
44228;SDS011;29904;51.058;5.378;2022-07-19T00:14:19;2.75;;;1.60;;
44228;SDS011;29904;51.058;5.378;2022-07-19T00:16:46;2.40;;;1.70;;
44228;SDS011;29904;51.058;5.378;2022-07-19T00:19:11;2.58;;;1.40;;
44228;SDS011;29904;51.058;5.378;2022-07-19T00:21:39;4.57;;;1.60;;
44228;SDS011;29904;51.058;5.378;2022-07-19T00:24:05;3.40;;;1.50;;
44228;SDS011;29904;51.058;5.378;2022-07-19T00:26:31;2.92;;;1.48;;
44228;SDS011;29904;51.058;5.378;2022-07-19T00:28:57;3.03;;;1.60;;
44228;SDS011;29904;51.058;5.378;2022-07-19T00:31:25;2.30;;;1.58;;
44228;SDS011;29904;51.058;5.378;2022-07-19T00:33:51;2.90;;;1.70;;
44228;SDS011;29904;51.058;5.378;2022-07-19T00:36:18;4.20;;;1.70;;
44228;SDS011;29904;51.058;5.378;2022-07-19T00:38:45;3.75;;;1.48;;
44228;SDS011;29904;51.058;5.378;2022-07-19T00:41:11;1.90;;;1.30;;
44228;SDS011;29904;51.058;5.378;2022-07-19T00:43:41;2.28;;;1.33;;
44228;SDS011;29904;51.058;5.378;2022-07-19T00:46:18;2.92;;;1.52;;
44228;SDS011;29904;51.058;5.378;2022-07-19T00:48:47;2.90;;;1.90;;
44228;SDS011;29904;51.058;5.378;2022-07-19T00:51:14;3.07;;;2.10;;
44228;SDS011;29904;51.058;5.378;2022-07-19T00:53:41;3.15;;;1.77;;
44228;SDS011;29904;51.058;5.378;2022-07-19T00:56:08;1.95;;;1.50;;
44228;SDS011;29904;51.058;5.378;2022-07-19T00:58:35;2.92;;;1.67;;
44228;SDS011;29904;51.058;5.378;2022-07-19T01:01:03;2.90;;;1.60;;
44228;SDS011;29904;51.058;5.378;2022-07-19T01:03:33;2.93;;;1.63;;
44228;SDS011;29904;51.058;5.378;2022-07-19T01:06:01;2.70;;;1.60;;
44228;SDS011;29904;51.058;5.378;2022-07-19T01:08:27;2.25;;;1.50;;
44228;SDS011;29904;51.058;5.378;2022-07-19T01:10:52;3.10;;;1.60;;
44228;SDS011;29904;51.058;5.378;2022-07-19T01:13:18;2.97;;;1.73;;
44228;SDS011;29904;51.058;5.378;2022-07-19T01:15:48;2.33;;;1.77;;
44228;SDS011;29904;51.058;5.378;2022-07-19T01:18:13;2.23;;;1.60;;
44228;SDS011;29904;51.058;5.378;2022-07-19T01:20:39;2.85;;;1.70;;
44228;SDS011;29904;51.058;5.378;2022-07-19T01:23:05;2.83;;;1.67;;
44228;SDS011;29904;51.058;5.378;2022-07-19T01:25:32;1.90;;;1.50;;
44228;SDS011;29904;51.058;5.378;2022-07-19T01:27:59;2.80;;;1.60;;
44228;SDS011;29904;51.058;5.378;2022-07-19T01:30:30;3.30;;;1.70;;
44228;SDS011;29904;51.058;5.378;2022-07-19T01:32:56;2.90;;;1.40;;
44228;SDS011;29904;51.058;5.378;2022-07-19T01:35:23;4.00;;;1.80;;
44228;SDS011;29904;51.058;5.378;2022-07-19T01:37:50;3.30;;;1.70;;
44228;SDS011;29904;51.058;5.378;2022-07-19T01:40:17;2.35;;;1.60;;
44228;SDS011;29904;51.058;5.378;2022-07-19T01:42:44;2.60;;;1.60;;
44228;SDS011;29904;51.058;5.378;2022-07-19T01:45:11;4.15;;;1.60;;
44228;SDS011;29904;51.058;5.378;2022-07-19T01:47:39;2.55;;;1.65;;
44228;SDS011;29904;51.058;5.378;2022-07-19T01:50:08;3.23;;;1.77;;
44228;SDS011;29904;51.058;5.378;2022-07-19T01:52:37;3.50;;;1.70;;
44228;SDS011;29904;51.058;5.378;2022-07-19T01:55:03;2.88;;;1.73;;
44228;SDS011;29904;51.058;5.378;2022-07-19T01:57:30;2.75;;;1.90;;
44228;SDS011;29904;51.058;5.378;2022-07-19T01:59:55;4.30;;;1.80;;
44228;SDS011;29904;51.058;5.378;2022-07-19T02:02:21;2.97;;;1.90;;
44228;SDS011;29904;51.058;5.378;2022-07-19T02:04:47;2.97;;;1.60;;
44228;SDS011;29904;51.058;5.378;2022-07-19T02:07:13;2.70;;;1.60;;
44228;SDS011;29904;51.058;5.378;2022-07-19T02:09:39;3.60;;;1.80;;
44228;SDS011;29904;51.058;5.378;2022-07-19T02:12:05;3.28;;;1.70;;
44228;SDS011;29904;51.058;5.378;2022-07-19T02:14:30;2.30;;;1.60;;
44228;SDS011;29904;51.058;5.378;2022-07-19T02:16:56;3.00;;;1.90;;
44228;SDS011;29904;51.058;5.378;2022-07-19T02:19:22;3.38;;;1.90;;
44228;SDS011;29904;51.058;5.378;2022-07-19T02:21:47;3.17;;;1.80;;
44228;SDS011;29904;51.058;5.378;2022-07-19T02:24:13;3.00;;;1.80;;
44228;SDS011;29904;51.058;5.378;2022-07-19T02:26:39;2.30;;;1.70;;
44228;SDS011;29904;51.058;5.378;2022-07-19T02:29:05;3.50;;;1.70;;
44228;SDS011;29904;51.058;5.378;2022-07-19T02:31:33;5.55;;;2.20;;
44228;SDS011;29904;51.058;5.378;2022-07-19T02:33:59;3.40;;;2.00;;
44228;SDS011;29904;51.058;5.378;2022-07-19T02:36:25;3.90;;;2.13;;
44228;SDS011;29904;51.058;5.378;2022-07-19T02:38:52;4.68;;;1.90;;
44228;SDS011;29904;51.058;5.378;2022-07-19T02:41:21;3.13;;;1.80;;
44228;SDS011;29904;51.058;5.378;2022-07-19T02:43:46;2.95;;;1.90;;
44228;SDS011;29904;51.058;5.378;2022-07-19T02:46:12;3.00;;;1.90;;
44228;SDS011;29904;51.058;5.378;2022-07-19T02:48:37;2.25;;;1.60;;
44228;SDS011;29904;51.058;5.378;2022-07-19T02:51:03;2.57;;;2.00;;
44228;SDS011;29904;51.058;5.378;2022-07-19T02:53:29;3.47;;;1.90;;
44228;SDS011;29904;51.058;5.378;2022-07-19T02:55:57;2.35;;;1.90;;
44228;SDS011;29904;51.058;5.378;2022-07-19T02:58:22;3.17;;;2.00;;
44228;SDS011;29904;51.058;5.378;2022-07-19T03:00:48;3.35;;;1.70;;
44228;SDS011;29904;51.058;5.378;2022-07-19T03:03:15;4.78;;;2.00;;
44228;SDS011;29904;51.058;5.378;2022-07-19T03:05:59;3.08;;;1.90;;
44228;SDS011;29904;51.058;5.378;2022-07-19T03:08:25;4.63;;;2.00;;
44228;SDS011;29904;51.058;5.378;2022-07-19T03:10:51;2.50;;;1.77;;
44228;SDS011;29904;51.058;5.378;2022-07-19T03:13:18;3.00;;;1.92;;
44228;SDS011;29904;51.058;5.378;2022-07-19T03:15:44;2.60;;;1.90;;
44228;SDS011;29904;51.058;5.378;2022-07-19T03:18:10;2.75;;;1.90;;
44228;SDS011;29904;51.058;5.378;2022-07-19T03:20:36;3.33;;;1.95;;
44228;SDS011;29904;51.058;5.378;2022-07-19T03:23:02;3.07;;;1.87;;
44228;SDS011;29904;51.058;5.378;2022-07-19T03:25:28;2.80;;;2.00;;
44228;SDS011;29904;51.058;5.378;2022-07-19T03:27:53;3.83;;;2.30;;
44228;SDS011;29904;51.058;5.378;2022-07-19T03:30:19;4.33;;;2.27;;
44228;SDS011;29904;51.058;5.378;2022-07-19T03:32:45;3.25;;;2.08;;
44228;SDS011;29904;51.058;5.378;2022-07-19T03:35:13;2.60;;;2.10;;
44228;SDS011;29904;51.058;5.378;2022-07-19T03:37:38;3.60;;;2.30;;
44228;SDS011;29904;51.058;5.378;2022-07-19T03:40:04;2.53;;;1.70;;
44228;SDS011;29904;51.058;5.378;2022-07-19T03:42:33;4.03;;;2.13;;
44228;SDS011;29904;51.058;5.378;2022-07-19T03:45:01;3.50;;;1.90;;
44228;SDS011;29904;51.058;5.378;2022-07-19T03:47:26;2.55;;;1.77;;
44228;SDS011;29904;51.058;5.378;2022-07-19T03:49:52;3.17;;;1.87;;
44228;SDS011;29904;51.058;5.378;2022-07-19T03:52:18;3.38;;;2.28;;
44228;SDS011;29904;51.058;5.378;2022-07-19T03:54:44;2.65;;;2.08;;
44228;SDS011;29904;51.058;5.378;2022-07-19T03:57:09;2.23;;;1.90;;
44228;SDS011;29904;51.058;5.378;2022-07-19T03:59:35;3.50;;;2.20;;
44228;SDS011;29904;51.058;5.378;2022-07-19T04:02:01;3.28;;;2.17;;
44228;SDS011;29904;51.058;5.378;2022-07-19T04:04:27;4.20;;;2.05;;
44228;SDS011;29904;51.058;5.378;2022-07-19T04:06:52;3.67;;;2.10;;
44228;SDS011;29904;51.058;5.378;2022-07-19T04:09:18;3.65;;;2.00;;
44228;SDS011;29904;51.058;5.378;2022-07-19T04:11:44;2.38;;;1.92;;
44228;SDS011;29904;51.058;5.378;2022-07-19T04:14:11;3.05;;;2.00;;
44228;SDS011;29904;51.058;5.378;2022-07-19T04:16:37;2.40;;;1.83;;
44228;SDS011;29904;51.058;5.378;2022-07-19T04:19:02;2.53;;;1.90;;
44228;SDS011;29904;51.058;5.378;2022-07-19T04:21:30;4.88;;;2.03;;
44228;SDS011;29904;51.058;5.378;2022-07-19T04:23:56;4.00;;;2.03;;
44228;SDS011;29904;51.058;5.378;2022-07-19T04:26:21;3.07;;;2.27;;
44228;SDS011;29904;51.058;5.378;2022-07-19T04:28:49;5.00;;;2.25;;
44228;SDS011;29904;51.058;5.378;2022-07-19T04:31:16;4.80;;;2.10;;
44228;SDS011;29904;51.058;5.378;2022-07-19T04:33:42;3.60;;;2.22;;
44228;SDS011;29904;51.058;5.378;2022-07-19T04:36:08;3.72;;;2.08;;
44228;SDS011;29904;51.058;5.378;2022-07-19T04:38:34;3.53;;;2.07;;
44228;SDS011;29904;51.058;5.378;2022-07-19T04:40:59;3.03;;;1.95;;
44228;SDS011;29904;51.058;5.378;2022-07-19T04:43:25;5.03;;;2.27;;
44228;SDS011;29904;51.058;5.378;2022-07-19T04:45:53;3.25;;;1.90;;
44228;SDS011;29904;51.058;5.378;2022-07-19T04:48:19;5.35;;;2.40;;
44228;SDS011;29904;51.058;5.378;2022-07-19T04:50:44;4.00;;;2.47;;
44228;SDS011;29904;51.058;5.378;2022-07-19T04:53:10;5.07;;;2.57;;
44228;SDS011;29904;51.058;5.378;2022-07-19T04:55:36;3.65;;;2.08;;
44228;SDS011;29904;51.058;5.378;2022-07-19T04:58:02;3.35;;;2.20;;
44228;SDS011;29904;51.058;5.378;2022-07-19T05:00:28;3.10;;;2.30;;
44228;SDS011;29904;51.058;5.378;2022-07-19T05:02:54;5.38;;;3.00;;
44228;SDS011;29904;51.058;5.378;2022-07-19T05:05:21;5.33;;;2.50;;
44228;SDS011;29904;51.058;5.378;2022-07-19T05:07:47;6.63;;;2.75;;
44228;SDS011;29904;51.058;5.378;2022-07-19T05:10:13;7.25;;;2.88;;
44228;SDS011;29904;51.058;5.378;2022-07-19T05:12:39;6.60;;;2.70;;
44228;SDS011;29904;51.058;5.378;2022-07-19T05:15:07;5.03;;;2.35;;
44228;SDS011;29904;51.058;5.378;2022-07-19T05:17:33;5.00;;;2.58;;
44228;SDS011;29904;51.058;5.378;2022-07-19T05:20:00;4.00;;;2.30;;
44228;SDS011;29904;51.058;5.378;2022-07-19T05:22:28;4.20;;;2.15;;
44228;SDS011;29904;51.058;5.378;2022-07-19T05:24:54;5.60;;;2.67;;
44228;SDS011;29904;51.058;5.378;2022-07-19T05:27:21;3.05;;;2.30;;
44228;SDS011;29904;51.058;5.378;2022-07-19T05:29:47;7.00;;;2.85;;
44228;SDS011;29904;51.058;5.378;2022-07-19T05:32:13;5.27;;;2.93;;
44228;SDS011;29904;51.058;5.378;2022-07-19T05:34:38;5.43;;;2.50;;
44228;SDS011;29904;51.058;5.378;2022-07-19T05:37:04;3.78;;;2.58;;
44228;SDS011;29904;51.058;5.378;2022-07-19T05:39:30;5.43;;;2.47;;
44228;SDS011;29904;51.058;5.378;2022-07-19T05:41:56;3.80;;;2.45;;
44228;SDS011;29904;51.058;5.378;2022-07-19T05:44:22;3.67;;;2.13;;
44228;SDS011;29904;51.058;5.378;2022-07-19T05:46:48;3.87;;;2.50;;
44228;SDS011;29904;51.058;5.378;2022-07-19T05:49:16;2.92;;;2.08;;
44228;SDS011;29904;51.058;5.378;2022-07-19T05:51:41;4.83;;;2.10;;
44228;SDS011;29904;51.058;5.378;2022-07-19T05:54:08;4.95;;;1.95;;
44228;SDS011;29904;51.058;5.378;2022-07-19T05:56:34;4.57;;;2.22;;
44228;SDS011;29904;51.058;5.378;2022-07-19T05:59:00;4.32;;;2.75;;
44228;SDS011;29904;51.058;5.378;2022-07-19T06:01:26;5.32;;;2.70;;
44228;SDS011;29904;51.058;5.378;2022-07-19T06:03:53;5.38;;;2.50;;
44228;SDS011;29904;51.058;5.378;2022-07-19T06:06:20;6.50;;;2.90;;
44228;SDS011;29904;51.058;5.378;2022-07-19T06:08:47;5.22;;;2.50;;
44228;SDS011;29904;51.058;5.378;2022-07-19T06:11:14;7.53;;;2.40;;
44228;SDS011;29904;51.058;5.378;2022-07-19T06:13:41;5.40;;;2.00;;
44228;SDS011;29904;51.058;5.378;2022-07-19T06:16:09;4.73;;;2.20;;
44228;SDS011;29904;51.058;5.378;2022-07-19T06:18:36;3.45;;;1.70;;
44228;SDS011;29904;51.058;5.378;2022-07-19T06:21:03;3.70;;;2.00;;
44228;SDS011;29904;51.058;5.378;2022-07-19T06:23:34;3.53;;;1.70;;
44228;SDS011;29904;51.058;5.378;2022-07-19T06:26:00;3.95;;;1.95;;
44228;SDS011;29904;51.058;5.378;2022-07-19T06:28:26;4.33;;;1.80;;
44228;SDS011;29904;51.058;5.378;2022-07-19T06:30:54;3.13;;;1.60;;
44228;SDS011;29904;51.058;5.378;2022-07-19T06:33:19;4.03;;;1.70;;
44228;SDS011;29904;51.058;5.378;2022-07-19T06:35:45;2.50;;;1.53;;
44228;SDS011;29904;51.058;5.378;2022-07-19T06:38:15;4.50;;;2.00;;
44228;SDS011;29904;51.058;5.378;2022-07-19T06:40:41;3.70;;;1.75;;
44228;SDS011;29904;51.058;5.378;2022-07-19T06:43:07;5.15;;;1.88;;
44228;SDS011;29904;51.058;5.378;2022-07-19T06:45:35;3.75;;;1.88;;
44228;SDS011;29904;51.058;5.378;2022-07-19T06:48:01;3.65;;;1.80;;
44228;SDS011;29904;51.058;5.378;2022-07-19T06:50:27;3.30;;;1.75;;
44228;SDS011;29904;51.058;5.378;2022-07-19T06:52:55;3.47;;;1.70;;
44228;SDS011;29904;51.058;5.378;2022-07-19T06:55:20;4.85;;;1.90;;
44228;SDS011;29904;51.058;5.378;2022-07-19T06:57:46;2.67;;;1.60;;
44228;SDS011;29904;51.058;5.378;2022-07-19T07:00:12;3.83;;;1.70;;
44228;SDS011;29904;51.058;5.378;2022-07-19T07:02:39;4.25;;;1.73;;
44228;SDS011;29904;51.058;5.378;2022-07-19T07:05:06;4.43;;;1.60;;
44228;SDS011;29904;51.058;5.378;2022-07-19T07:07:34;3.90;;;1.63;;
44228;SDS011;29904;51.058;5.378;2022-07-19T07:10:03;3.45;;;1.65;;
44228;SDS011;29904;51.058;5.378;2022-07-19T07:12:31;4.70;;;1.85;;
44228;SDS011;29904;51.058;5.378;2022-07-19T07:14:57;3.50;;;1.50;;
44228;SDS011;29904;51.058;5.378;2022-07-19T07:17:23;3.87;;;1.70;;
44228;SDS011;29904;51.058;5.378;2022-07-19T07:19:51;6.17;;;2.20;;
44228;SDS011;29904;51.058;5.378;2022-07-19T07:22:16;4.57;;;2.28;;
44228;SDS011;29904;51.058;5.378;2022-07-19T07:24:42;2.80;;;1.80;;
44228;SDS011;29904;51.058;5.378;2022-07-19T07:27:08;2.80;;;1.80;;
44228;SDS011;29904;51.058;5.378;2022-07-19T07:29:34;5.33;;;1.97;;
44228;SDS011;29904;51.058;5.378;2022-07-19T07:31:59;4.97;;;1.60;;
44228;SDS011;29904;51.058;5.378;2022-07-19T07:34:25;3.38;;;1.70;;
44228;SDS011;29904;51.058;5.378;2022-07-19T07:36:51;3.92;;;1.65;;
44228;SDS011;29904;51.058;5.378;2022-07-19T07:39:17;3.60;;;1.75;;
44228;SDS011;29904;51.058;5.378;2022-07-19T07:41:42;2.67;;;1.57;;
44228;SDS011;29904;51.058;5.378;2022-07-19T07:44:10;4.47;;;2.10;;
44228;SDS011;29904;51.058;5.378;2022-07-19T07:46:37;3.50;;;2.10;;
44228;SDS011;29904;51.058;5.378;2022-07-19T07:49:03;3.13;;;1.70;;
44228;SDS011;29904;51.058;5.378;2022-07-19T07:51:29;4.03;;;1.63;;
44228;SDS011;29904;51.058;5.378;2022-07-19T07:53:54;3.95;;;1.80;;
44228;SDS011;29904;51.058;5.378;2022-07-19T07:56:20;3.00;;;1.70;;
44228;SDS011;29904;51.058;5.378;2022-07-19T07:58:46;3.60;;;1.73;;
44228;SDS011;29904;51.058;5.378;2022-07-19T08:01:12;3.50;;;1.60;;
44228;SDS011;29904;51.058;5.378;2022-07-19T08:03:37;2.43;;;1.60;;
44228;SDS011;29904;51.058;5.378;2022-07-19T08:06:03;3.90;;;1.80;;
44228;SDS011;29904;51.058;5.378;2022-07-19T08:08:32;3.50;;;1.50;;
44228;SDS011;29904;51.058;5.378;2022-07-19T08:10:58;4.45;;;1.58;;
44228;SDS011;29904;51.058;5.378;2022-07-19T08:13:24;3.22;;;1.45;;
44228;SDS011;29904;51.058;5.378;2022-07-19T08:15:50;3.93;;;1.40;;
44228;SDS011;29904;51.058;5.378;2022-07-19T08:18:16;3.85;;;1.60;;
44228;SDS011;29904;51.058;5.378;2022-07-19T08:20:42;4.28;;;1.33;;
44228;SDS011;29904;51.058;5.378;2022-07-19T08:23:08;4.47;;;1.40;;
44228;SDS011;29904;51.058;5.378;2022-07-19T08:25:34;3.42;;;1.60;;
44228;SDS011;29904;51.058;5.378;2022-07-19T08:28:00;3.13;;;1.40;;
44228;SDS011;29904;51.058;5.378;2022-07-19T08:30:27;4.83;;;1.37;;
44228;SDS011;29904;51.058;5.378;2022-07-19T08:32:54;4.40;;;1.60;;
44228;SDS011;29904;51.058;5.378;2022-07-19T08:35:25;3.73;;;1.30;;
44228;SDS011;29904;51.058;5.378;2022-07-19T08:37:51;2.40;;;1.40;;
44228;SDS011;29904;51.058;5.378;2022-07-19T08:40:17;2.53;;;1.40;;
44228;SDS011;29904;51.058;5.378;2022-07-19T08:42:43;2.75;;;1.60;;
44228;SDS011;29904;51.058;5.378;2022-07-19T08:45:09;3.42;;;1.40;;
44228;SDS011;29904;51.058;5.378;2022-07-19T08:47:36;4.63;;;1.70;;
44228;SDS011;29904;51.058;5.378;2022-07-19T08:50:05;3.35;;;1.60;;
44228;SDS011;29904;51.058;5.378;2022-07-19T08:52:33;4.35;;;1.50;;
44228;SDS011;29904;51.058;5.378;2022-07-19T08:55:00;5.47;;;1.63;;
44228;SDS011;29904;51.058;5.378;2022-07-19T08:57:27;6.70;;;1.50;;
44228;SDS011;29904;51.058;5.378;2022-07-19T09:00:13;3.15;;;1.65;;
44228;SDS011;29904;51.058;5.378;2022-07-19T09:02:39;3.85;;;1.30;;
44228;SDS011;29904;51.058;5.378;2022-07-19T09:05:06;5.97;;;1.42;;
44228;SDS011;29904;51.058;5.378;2022-07-19T09:07:36;2.60;;;1.50;;
44228;SDS011;29904;51.058;5.378;2022-07-19T09:10:15;4.47;;;1.50;;
44228;SDS011;29904;51.058;5.378;2022-07-19T09:15:41;3.60;;;1.30;;
44228;SDS011;29904;51.058;5.378;2022-07-19T09:18:15;2.72;;;1.42;;
44228;SDS011;29904;51.058;5.378;2022-07-19T09:20:46;5.03;;;1.58;;
44228;SDS011;29904;51.058;5.378;2022-07-19T09:23:13;3.05;;;1.50;;
44228;SDS011;29904;51.058;5.378;2022-07-19T09:25:59;3.55;;;1.50;;
44228;SDS011;29904;51.058;5.378;2022-07-19T09:28:32;3.08;;;1.60;;
44228;SDS011;29904;51.058;5.378;2022-07-19T09:30:58;3.22;;;1.30;;
44228;SDS011;29904;51.058;5.378;2022-07-19T09:33:26;4.07;;;1.57;;
44228;SDS011;29904;51.058;5.378;2022-07-19T09:35:54;2.67;;;1.47;;
44228;SDS011;29904;51.058;5.378;2022-07-19T09:41:14;4.97;;;1.60;;
44228;SDS011;29904;51.058;5.378;2022-07-19T09:43:49;3.80;;;1.40;;
44228;SDS011;29904;51.058;5.378;2022-07-19T09:51:29;4.40;;;1.60;;
44228;SDS011;29904;51.058;5.378;2022-07-19T09:53:56;3.08;;;1.40;;
44228;SDS011;29904;51.058;5.378;2022-07-19T09:56:23;4.60;;;1.55;;
44228;SDS011;29904;51.058;5.378;2022-07-19T09:58:49;4.22;;;1.50;;
44228;SDS011;29904;51.058;5.378;2022-07-19T10:01:16;3.38;;;1.67;;
44228;SDS011;29904;51.058;5.378;2022-07-19T10:03:43;4.28;;;1.38;;
44228;SDS011;29904;51.058;5.378;2022-07-19T10:06:09;3.00;;;1.20;;
44228;SDS011;29904;51.058;5.378;2022-07-19T10:08:35;2.97;;;1.40;;
44228;SDS011;29904;51.058;5.378;2022-07-19T10:11:01;5.70;;;1.50;;
44228;SDS011;29904;51.058;5.378;2022-07-19T10:13:26;2.20;;;1.30;;
44228;SDS011;29904;51.058;5.378;2022-07-19T10:15:52;2.30;;;1.40;;
44228;SDS011;29904;51.058;5.378;2022-07-19T10:18:23;4.30;;;1.60;;
44228;SDS011;29904;51.058;5.378;2022-07-19T10:20:54;3.22;;;1.33;;
44228;SDS011;29904;51.058;5.378;2022-07-19T10:23:27;2.63;;;1.30;;
44228;SDS011;29904;51.058;5.378;2022-07-19T10:25:54;2.42;;;1.50;;
44228;SDS011;29904;51.058;5.378;2022-07-19T10:28:35;1.67;;;1.20;;
44228;SDS011;29904;51.058;5.378;2022-07-19T10:31:02;4.60;;;1.25;;
44228;SDS011;29904;51.058;5.378;2022-07-19T10:34:01;3.47;;;1.23;;
44228;SDS011;29904;51.058;5.378;2022-07-19T10:39:29;2.40;;;1.40;;
44228;SDS011;29904;51.058;5.378;2022-07-19T10:42:16;2.92;;;1.38;;
44228;SDS011;29904;51.058;5.378;2022-07-19T10:47:21;3.63;;;1.33;;
44228;SDS011;29904;51.058;5.378;2022-07-19T10:50:14;1.95;;;1.20;;
44228;SDS011;29904;51.058;5.378;2022-07-19T10:52:44;3.90;;;1.30;;
44228;SDS011;29904;51.058;5.378;2022-07-19T10:57:46;3.10;;;1.20;;
44228;SDS011;29904;51.058;5.378;2022-07-19T11:00:26;5.90;;;1.30;;
44228;SDS011;29904;51.058;5.378;2022-07-19T11:03:27;3.47;;;1.45;;
44228;SDS011;29904;51.058;5.378;2022-07-19T11:05:50;4.65;;;1.40;;
44228;SDS011;29904;51.058;5.378;2022-07-19T11:08:34;4.25;;;1.40;;
44228;SDS011;29904;51.058;5.378;2022-07-19T11:11:11;3.13;;;1.20;;
44228;SDS011;29904;51.058;5.378;2022-07-19T11:13:39;3.60;;;1.20;;
44228;SDS011;29904;51.058;5.378;2022-07-19T11:16:10;2.60;;;1.20;;
44228;SDS011;29904;51.058;5.378;2022-07-19T11:18:36;2.40;;;1.40;;
44228;SDS011;29904;51.058;5.378;2022-07-19T11:21:03;5.63;;;1.70;;
44228;SDS011;29904;51.058;5.378;2022-07-19T11:23:31;3.97;;;1.42;;
44228;SDS011;29904;51.058;5.378;2022-07-19T11:26:09;2.22;;;1.23;;
44228;SDS011;29904;51.058;5.378;2022-07-19T11:28:37;4.68;;;1.30;;
44228;SDS011;29904;51.058;5.378;2022-07-19T11:31:21;3.03;;;1.38;;
44228;SDS011;29904;51.058;5.378;2022-07-19T11:33:50;2.55;;;1.17;;
44228;SDS011;29904;51.058;5.378;2022-07-19T11:36:22;3.95;;;1.50;;
44228;SDS011;29904;51.058;5.378;2022-07-19T11:38:53;2.53;;;1.20;;
44228;SDS011;29904;51.058;5.378;2022-07-19T11:41:31;4.17;;;1.20;;
44228;SDS011;29904;51.058;5.378;2022-07-19T11:44:00;5.10;;;1.40;;
44228;SDS011;29904;51.058;5.378;2022-07-19T11:46:29;2.08;;;1.30;;
44228;SDS011;29904;51.058;5.378;2022-07-19T11:49:03;2.63;;;1.47;;
44228;SDS011;29904;51.058;5.378;2022-07-19T11:51:30;4.35;;;1.30;;
44228;SDS011;29904;51.058;5.378;2022-07-19T11:53:57;3.03;;;1.40;;
44228;SDS011;29904;51.058;5.378;2022-07-19T11:56:25;4.40;;;1.83;;
44228;SDS011;29904;51.058;5.378;2022-07-19T11:58:53;2.55;;;1.35;;
44228;SDS011;29904;51.058;5.378;2022-07-19T12:01:30;4.03;;;1.30;;
44228;SDS011;29904;51.058;5.378;2022-07-19T12:04:03;2.07;;;1.30;;
44228;SDS011;29904;51.058;5.378;2022-07-19T12:11:42;2.53;;;1.40;;
44228;SDS011;29904;51.058;5.378;2022-07-19T12:14:19;1.90;;;1.13;;
44228;SDS011;29904;51.058;5.378;2022-07-19T12:19:40;4.32;;;1.30;;
44228;SDS011;29904;51.058;5.378;2022-07-19T12:22:25;1.95;;;1.27;;
44228;SDS011;29904;51.058;5.378;2022-07-19T12:25:01;2.75;;;1.40;;
44228;SDS011;29904;51.058;5.378;2022-07-19T12:27:28;4.10;;;1.40;;
44228;SDS011;29904;51.058;5.378;2022-07-19T12:29:55;2.70;;;1.57;;
44228;SDS011;29904;51.058;5.378;2022-07-19T12:32:28;2.70;;;1.48;;
44228;SDS011;29904;51.058;5.378;2022-07-19T12:34:58;4.10;;;1.30;;
44228;SDS011;29904;51.058;5.378;2022-07-19T12:37:47;4.55;;;1.45;;
44228;SDS011;29904;51.058;5.378;2022-07-19T12:40:24;4.70;;;1.33;;
44228;SDS011;29904;51.058;5.378;2022-07-19T12:42:51;2.75;;;1.30;;
44228;SDS011;29904;51.058;5.378;2022-07-19T12:45:29;3.13;;;1.40;;
44228;SDS011;29904;51.058;5.378;2022-07-19T12:48:06;3.53;;;1.40;;
44228;SDS011;29904;51.058;5.378;2022-07-19T12:50:34;6.53;;;1.35;;
44228;SDS011;29904;51.058;5.378;2022-07-19T12:53:03;4.18;;;1.52;;
44228;SDS011;29904;51.058;5.378;2022-07-19T12:55:32;2.80;;;1.30;;
44228;SDS011;29904;51.058;5.378;2022-07-19T12:58:00;3.53;;;1.60;;
44228;SDS011;29904;51.058;5.378;2022-07-19T13:00:28;3.93;;;1.43;;
44228;SDS011;29904;51.058;5.378;2022-07-19T13:02:55;2.83;;;1.40;;
44228;SDS011;29904;51.058;5.378;2022-07-19T13:05:21;2.75;;;1.40;;
44228;SDS011;29904;51.058;5.378;2022-07-19T13:07:50;3.25;;;1.33;;
44228;SDS011;29904;51.058;5.378;2022-07-19T13:10:16;3.47;;;1.60;;
44228;SDS011;29904;51.058;5.378;2022-07-19T13:12:42;3.13;;;1.63;;
44228;SDS011;29904;51.058;5.378;2022-07-19T13:15:08;3.90;;;1.40;;
44228;SDS011;29904;51.058;5.378;2022-07-19T13:17:34;5.50;;;1.67;;
44228;SDS011;29904;51.058;5.378;2022-07-19T13:20:01;2.87;;;1.30;;
44228;SDS011;29904;51.058;5.378;2022-07-19T13:22:28;3.00;;;1.30;;
44228;SDS011;29904;51.058;5.378;2022-07-19T13:24:53;3.28;;;1.30;;
44228;SDS011;29904;51.058;5.378;2022-07-19T13:27:19;1.93;;;1.30;;
44228;SDS011;29904;51.058;5.378;2022-07-19T13:29:45;1.73;;;1.30;;
44228;SDS011;29904;51.058;5.378;2022-07-19T13:32:11;3.67;;;1.50;;
44228;SDS011;29904;51.058;5.378;2022-07-19T13:34:39;3.13;;;1.60;;
44228;SDS011;29904;51.058;5.378;2022-07-19T13:37:07;3.83;;;1.80;;
44228;SDS011;29904;51.058;5.378;2022-07-19T13:39:33;2.60;;;1.40;;
44228;SDS011;29904;51.058;5.378;2022-07-19T13:41:59;3.40;;;1.40;;
44228;SDS011;29904;51.058;5.378;2022-07-19T13:44:25;5.38;;;1.60;;
44228;SDS011;29904;51.058;5.378;2022-07-19T13:46:50;3.65;;;1.52;;
44228;SDS011;29904;51.058;5.378;2022-07-19T13:49:16;4.20;;;1.90;;
44228;SDS011;29904;51.058;5.378;2022-07-19T13:51:42;3.93;;;1.60;;
44228;SDS011;29904;51.058;5.378;2022-07-19T13:54:10;3.97;;;1.70;;
44228;SDS011;29904;51.058;5.378;2022-07-19T13:56:37;3.53;;;1.60;;
44228;SDS011;29904;51.058;5.378;2022-07-19T13:59:03;2.73;;;1.60;;
44228;SDS011;29904;51.058;5.378;2022-07-19T14:01:30;3.00;;;1.50;;
44228;SDS011;29904;51.058;5.378;2022-07-19T14:03:56;2.90;;;1.70;;
44228;SDS011;29904;51.058;5.378;2022-07-19T14:06:22;3.45;;;1.58;;
44228;SDS011;29904;51.058;5.378;2022-07-19T14:08:53;4.80;;;1.50;;
44228;SDS011;29904;51.058;5.378;2022-07-19T14:11:20;2.10;;;1.40;;
44228;SDS011;29904;51.058;5.378;2022-07-19T14:13:46;6.82;;;1.60;;
44228;SDS011;29904;51.058;5.378;2022-07-19T14:16:12;3.22;;;1.40;;
44228;SDS011;29904;51.058;5.378;2022-07-19T14:18:40;2.80;;;1.30;;
44228;SDS011;29904;51.058;5.378;2022-07-19T14:21:06;6.97;;;1.70;;
44228;SDS011;29904;51.058;5.378;2022-07-19T14:23:31;2.20;;;1.50;;
44228;SDS011;29904;51.058;5.378;2022-07-19T14:25:57;3.67;;;1.77;;
44228;SDS011;29904;51.058;5.378;2022-07-19T14:28:23;2.67;;;1.60;;
44228;SDS011;29904;51.058;5.378;2022-07-19T14:30:49;2.23;;;1.53;;
44228;SDS011;29904;51.058;5.378;2022-07-19T14:33:15;3.33;;;1.70;;
44228;SDS011;29904;51.058;5.378;2022-07-19T14:35:40;3.33;;;1.27;;
44228;SDS011;29904;51.058;5.378;2022-07-19T14:38:06;4.05;;;1.60;;
44228;SDS011;29904;51.058;5.378;2022-07-19T14:40:32;4.97;;;1.50;;
44228;SDS011;29904;51.058;5.378;2022-07-19T14:42:59;4.28;;;1.60;;
44228;SDS011;29904;51.058;5.378;2022-07-19T14:45:25;3.78;;;1.65;;
44228;SDS011;29904;51.058;5.378;2022-07-19T14:47:50;3.15;;;1.50;;
44228;SDS011;29904;51.058;5.378;2022-07-19T14:50:18;4.15;;;1.30;;
44228;SDS011;29904;51.058;5.378;2022-07-19T14:52:44;3.17;;;1.60;;
44228;SDS011;29904;51.058;5.378;2022-07-19T14:55:10;2.77;;;1.53;;
44228;SDS011;29904;51.058;5.378;2022-07-19T14:57:37;2.63;;;1.70;;
44228;SDS011;29904;51.058;5.378;2022-07-19T15:00:05;2.67;;;1.60;;
44228;SDS011;29904;51.058;5.378;2022-07-19T15:02:31;2.70;;;1.45;;
44228;SDS011;29904;51.058;5.378;2022-07-19T15:04:57;3.60;;;1.48;;
44228;SDS011;29904;51.058;5.378;2022-07-19T15:07:24;2.20;;;1.45;;
44228;SDS011;29904;51.058;5.378;2022-07-19T15:09:50;2.00;;;1.42;;
44228;SDS011;29904;51.058;5.378;2022-07-19T15:12:16;6.60;;;1.52;;
44228;SDS011;29904;51.058;5.378;2022-07-19T15:14:44;4.82;;;1.50;;
44228;SDS011;29904;51.058;5.378;2022-07-19T15:17:10;2.97;;;1.40;;
44228;SDS011;29904;51.058;5.378;2022-07-19T15:19:36;2.33;;;1.40;;